createdAt,value
2018-08-04T00:00:23.935Z,15.35
2018-08-04T00:01:23.946Z,15.25
2018-08-04T00:02:23.963Z,15.41
2018-08-04T00:03:24.113Z,15.23
2018-08-04T00:04:23.981Z,15.33
2018-08-04T00:05:23.992Z,15.30
2018-08-04T00:06:23.999Z,15.38
2018-08-04T00:07:24.015Z,15.34
2018-08-04T00:08:24.170Z,15.30
2018-08-04T00:09:24.032Z,15.30
2018-08-04T00:10:24.043Z,15.31
2018-08-04T00:11:24.056Z,15.43
2018-08-04T00:12:24.070Z,15.35
2018-08-04T00:13:24.207Z,15.38
2018-08-04T00:14:24.090Z,15.34
2018-08-04T00:15:24.106Z,15.25
2018-08-04T00:16:24.108Z,15.30
2018-08-04T00:17:24.124Z,15.30
2018-08-04T00:18:24.269Z,15.35
2018-08-04T00:19:24.142Z,15.34
2018-08-04T00:20:24.154Z,15.31
2018-08-04T00:21:24.166Z,15.40
2018-08-04T00:22:24.160Z,15.41
2018-08-04T00:23:24.189Z,15.41
2018-08-04T00:24:24.204Z,15.35
2018-08-04T00:25:24.213Z,15.25
2018-08-04T00:26:24.240Z,15.31
2018-08-04T00:27:24.237Z,15.34
2018-08-04T00:28:24.246Z,15.33
2018-08-04T00:29:24.359Z,15.33
2018-08-04T00:30:24.265Z,15.27
2018-08-04T00:31:24.284Z,15.38
2018-08-04T00:32:24.293Z,15.35
2018-08-04T00:33:24.310Z,15.38
2018-08-04T00:34:24.400Z,15.43
2018-08-04T00:35:24.331Z,15.25
2018-08-04T00:36:24.315Z,15.43
2018-08-04T00:37:24.347Z,15.26
2018-08-04T00:38:24.359Z,15.44
2018-08-04T00:39:24.457Z,15.19
2018-08-04T00:40:24.382Z,15.22
2018-08-04T00:41:24.397Z,15.41
2018-08-04T00:42:24.400Z,15.41
2018-08-04T00:43:24.418Z,15.40
2018-08-04T00:44:24.538Z,15.45
2018-08-04T00:45:24.441Z,15.51
2018-08-04T00:46:24.448Z,15.51
2018-08-04T00:47:24.457Z,15.91
2018-08-04T00:48:24.467Z,15.98
2018-08-04T00:49:24.619Z,16.07
2018-08-04T00:50:24.497Z,15.92
2018-08-04T00:51:24.504Z,15.73
2018-08-04T00:52:24.512Z,15.84
2018-08-04T00:53:24.508Z,15.67
2018-08-04T00:54:24.789Z,15.63
2018-08-04T00:55:24.547Z,15.92
2018-08-04T00:56:24.563Z,15.86
2018-08-04T00:57:24.580Z,15.96
2018-08-04T00:58:24.589Z,16.06
2018-08-04T00:59:24.745Z,16.02
2018-08-04T01:00:24.617Z,16.14
2018-08-04T01:01:24.624Z,16.13
2018-08-04T01:02:24.634Z,16.13
2018-08-04T01:03:24.639Z,16.08
2018-08-04T01:04:24.807Z,16.02
2018-08-04T01:05:24.669Z,16.14
2018-08-04T01:06:24.660Z,16.17
2018-08-04T01:07:24.670Z,16.04
2018-08-04T01:08:24.706Z,15.88
2018-08-04T01:09:24.937Z,15.98
2018-08-04T01:10:24.708Z,16.04
2018-08-04T01:11:24.732Z,15.88
2018-08-04T01:12:24.743Z,15.96
2018-08-04T01:13:24.756Z,16.08
2018-08-04T01:14:24.898Z,16.07
2018-08-04T01:15:24.788Z,16.22
2018-08-04T01:16:24.788Z,16.10
2018-08-04T01:17:24.802Z,15.93
2018-08-04T01:18:24.814Z,16.18
2018-08-04T01:19:25.076Z,16.17
2018-08-04T01:20:24.843Z,16.06
2018-08-04T01:21:24.847Z,16.06
2018-08-04T01:22:24.863Z,16.22
2018-08-04T01:23:24.873Z,16.14
2018-08-04T01:24:25.035Z,16.00
2018-08-04T01:25:24.888Z,16.06
2018-08-04T01:26:24.943Z,16.18
2018-08-04T01:27:24.920Z,15.89
2018-08-04T01:28:24.935Z,15.86
2018-08-04T01:29:25.193Z,15.98
2018-08-04T01:30:24.956Z,16.00
2018-08-04T01:31:24.969Z,16.04
2018-08-04T01:32:24.980Z,16.04
2018-08-04T01:33:24.969Z,16.02
2018-08-04T01:34:25.136Z,16.07
2018-08-04T01:35:25.016Z,16.10
2018-08-04T01:36:25.016Z,16.07
2018-08-04T01:37:25.018Z,16.08
2018-08-04T01:38:25.045Z,16.04
2018-08-04T01:39:25.058Z,16.02
2018-08-04T01:40:25.066Z,16.06
2018-08-04T01:41:25.081Z,16.07
2018-08-04T01:42:25.074Z,16.07
2018-08-04T01:43:25.097Z,16.07
2018-08-04T01:44:25.279Z,16.18
2018-08-04T01:45:25.128Z,16.17
2018-08-04T01:46:25.140Z,16.16
2018-08-04T01:47:25.145Z,16.14
2018-08-04T01:48:25.152Z,16.08
2018-08-04T01:49:25.157Z,16.08
2018-08-04T01:50:25.327Z,16.11
2018-08-04T01:51:25.194Z,15.98
2018-08-04T01:52:25.207Z,16.06
2018-08-04T01:53:25.220Z,16.17
2018-08-04T01:54:25.226Z,16.04
2018-08-04T01:55:25.390Z,16.08
2018-08-04T01:56:25.236Z,16.10
2018-08-04T01:57:25.264Z,16.10
2018-08-04T01:58:25.272Z,16.11
2018-08-04T01:59:25.284Z,16.10
2018-08-04T02:00:25.435Z,16.04
2018-08-04T02:01:25.315Z,16.08
2018-08-04T02:02:25.316Z,16.04
2018-08-04T02:03:25.329Z,16.06
2018-08-04T02:04:25.341Z,16.02
2018-08-04T02:05:25.491Z,16.08
2018-08-04T02:06:25.360Z,15.99
2018-08-04T02:07:25.371Z,16.00
2018-08-04T02:08:25.390Z,15.99
2018-08-04T02:09:25.408Z,16.06
2018-08-04T02:10:25.564Z,15.88
2018-08-04T02:11:25.425Z,16.07
2018-08-04T02:12:25.430Z,16.00
2018-08-04T02:13:25.445Z,15.96
2018-08-04T02:14:25.463Z,15.92
2018-08-04T02:15:25.612Z,15.92
2018-08-04T02:16:25.494Z,15.96
2018-08-04T02:17:25.469Z,16.02
2018-08-04T02:18:25.501Z,16.00
2018-08-04T02:19:25.533Z,16.00
2018-08-04T02:20:25.782Z,15.93
2018-08-04T02:21:25.537Z,16.04
2018-08-04T02:22:25.552Z,16.02
2018-08-04T02:23:25.558Z,15.92
2018-08-04T02:24:25.575Z,15.98
2018-08-04T02:25:25.834Z,16.00
2018-08-04T02:26:25.581Z,15.91
2018-08-04T02:27:25.601Z,16.02
2018-08-04T02:28:25.615Z,15.99
2018-08-04T02:29:25.609Z,15.96
2018-08-04T02:30:25.794Z,15.96
2018-08-04T02:31:25.653Z,15.91
2018-08-04T02:32:25.659Z,15.93
2018-08-04T02:33:25.674Z,16.02
2018-08-04T02:34:25.684Z,15.93
2018-08-04T02:35:25.849Z,15.92
2018-08-04T02:36:25.712Z,15.86
2018-08-04T02:37:25.719Z,15.88
2018-08-04T02:38:25.730Z,15.89
2018-08-04T02:39:25.755Z,15.91
2018-08-04T02:40:26.007Z,15.88
2018-08-04T02:41:25.767Z,15.88
2018-08-04T02:42:25.770Z,15.88
2018-08-04T02:43:25.787Z,15.81
2018-08-04T02:44:25.804Z,15.77
2018-08-04T02:45:25.937Z,15.91
2018-08-04T02:46:25.813Z,15.86
2018-08-04T02:47:25.832Z,15.78
2018-08-04T02:48:25.829Z,15.78
2018-08-04T02:49:25.859Z,15.75
2018-08-04T02:50:26.025Z,15.75
2018-08-04T02:51:25.864Z,15.71
2018-08-04T02:52:25.893Z,15.74
2018-08-04T02:53:25.901Z,15.63
2018-08-04T02:54:25.912Z,15.73
2018-08-04T02:55:26.075Z,15.74
2018-08-04T02:56:25.941Z,15.77
2018-08-04T02:57:25.950Z,15.75
2018-08-04T02:58:25.943Z,15.80
2018-08-04T02:59:25.971Z,15.92
2018-08-04T03:00:26.136Z,15.89
2018-08-04T03:01:25.993Z,15.77
2018-08-04T03:02:26.002Z,15.91
2018-08-04T03:03:26.016Z,16.00
2018-08-04T03:04:26.023Z,16.04
2018-08-04T03:05:26.186Z,16.07
2018-08-04T03:06:26.047Z,16.07
2018-08-04T03:07:26.067Z,16.00
2018-08-04T03:08:26.126Z,15.93
2018-08-04T03:09:26.082Z,16.04
2018-08-04T03:10:26.252Z,15.99
2018-08-04T03:11:26.085Z,15.98
2018-08-04T03:12:26.118Z,15.92
2018-08-04T03:13:26.132Z,16.00
2018-08-04T03:14:26.147Z,16.10
2018-08-04T03:15:26.151Z,16.11
2018-08-04T03:16:26.420Z,16.14
2018-08-04T03:17:26.179Z,16.04
2018-08-04T03:18:26.188Z,15.98
2018-08-04T03:19:26.202Z,15.99
2018-08-04T03:20:26.199Z,16.11
2018-08-04T03:21:26.380Z,15.89
2018-08-04T03:22:26.241Z,15.99
2018-08-04T03:23:26.242Z,16.02
2018-08-04T03:24:26.255Z,15.95
2018-08-04T03:25:26.276Z,15.96
2018-08-04T03:26:26.430Z,15.86
2018-08-04T03:27:26.273Z,16.02
2018-08-04T03:28:26.305Z,15.93
2018-08-04T03:29:26.314Z,15.84
2018-08-04T03:30:26.309Z,15.95
2018-08-04T03:31:26.489Z,16.02
2018-08-04T03:32:26.344Z,16.00
2018-08-04T03:33:26.360Z,15.95
2018-08-04T03:34:26.370Z,15.95
2018-08-04T03:35:26.384Z,15.88
2018-08-04T03:36:26.531Z,15.89
2018-08-04T03:37:26.406Z,15.84
2018-08-04T03:38:26.420Z,15.74
2018-08-04T03:39:26.409Z,15.75
2018-08-04T03:40:26.437Z,15.86
2018-08-04T03:41:26.598Z,15.86
2018-08-04T03:42:26.464Z,15.84
2018-08-04T03:43:26.474Z,15.84
2018-08-04T03:44:26.492Z,15.84
2018-08-04T03:45:26.501Z,15.80
2018-08-04T03:46:26.664Z,15.73
2018-08-04T03:47:26.526Z,15.78
2018-08-04T03:48:26.535Z,15.95
2018-08-04T03:49:26.548Z,15.92
2018-08-04T03:50:26.558Z,15.77
2018-08-04T03:51:26.697Z,15.78
2018-08-04T03:52:26.585Z,15.84
2018-08-04T03:53:26.585Z,15.78
2018-08-04T03:54:26.578Z,15.93
2018-08-04T03:55:26.594Z,15.89
2018-08-04T03:56:26.869Z,15.89
2018-08-04T03:57:26.639Z,15.77
2018-08-04T03:58:26.628Z,15.81
2018-08-04T03:59:26.656Z,15.93
2018-08-04T04:00:26.671Z,15.86
2018-08-04T04:01:26.833Z,15.93
2018-08-04T04:02:26.701Z,15.84
2018-08-04T04:03:26.703Z,15.99
2018-08-04T04:04:26.712Z,15.96
2018-08-04T04:05:26.732Z,15.99
2018-08-04T04:06:26.989Z,16.00
2018-08-04T04:07:26.753Z,15.95
2018-08-04T04:08:26.760Z,15.86
2018-08-04T04:09:26.772Z,16.00
2018-08-04T04:10:26.785Z,15.93
2018-08-04T04:11:27.050Z,15.93
2018-08-04T04:12:26.812Z,15.96
2018-08-04T04:13:26.819Z,15.88
2018-08-04T04:14:26.839Z,15.92
2018-08-04T04:15:26.842Z,15.92
2018-08-04T04:16:27.008Z,16.00
2018-08-04T04:17:26.869Z,16.00
2018-08-04T04:18:26.882Z,16.02
2018-08-04T04:19:26.879Z,15.93
2018-08-04T04:20:26.903Z,15.93
2018-08-04T04:21:27.052Z,15.80
2018-08-04T04:22:26.923Z,15.91
2018-08-04T04:23:26.934Z,15.84
2018-08-04T04:24:26.945Z,15.95
2018-08-04T04:25:26.961Z,16.02
2018-08-04T04:26:27.217Z,15.98
2018-08-04T04:27:26.979Z,16.04
2018-08-04T04:28:26.996Z,16.04
2018-08-04T04:29:27.006Z,15.95
2018-08-04T04:30:27.020Z,15.93
2018-08-04T04:31:27.031Z,15.96
2018-08-04T04:32:27.171Z,15.99
2018-08-04T04:33:27.054Z,15.89
2018-08-04T04:34:27.068Z,15.93
2018-08-04T04:35:27.076Z,15.86
2018-08-04T04:36:27.067Z,15.91
2018-08-04T04:37:27.093Z,15.93
2018-08-04T04:38:27.357Z,15.88
2018-08-04T04:39:27.119Z,15.84
2018-08-04T04:40:27.128Z,15.74
2018-08-04T04:41:27.145Z,15.67
2018-08-04T04:42:27.153Z,15.68
2018-08-04T04:43:27.149Z,15.56
2018-08-04T04:44:27.324Z,15.71
2018-08-04T04:45:27.190Z,15.67
2018-08-04T04:46:27.202Z,15.73
2018-08-04T04:47:27.212Z,15.74
2018-08-04T04:48:27.258Z,15.80
2018-08-04T04:49:27.385Z,15.80
2018-08-04T04:50:27.256Z,15.91
2018-08-04T04:51:27.257Z,15.77
2018-08-04T04:52:27.266Z,15.84
2018-08-04T04:53:27.278Z,15.88
2018-08-04T04:54:27.445Z,15.84
2018-08-04T04:55:27.373Z,15.84
2018-08-04T04:56:27.319Z,15.89
2018-08-04T04:57:27.333Z,15.89
2018-08-04T04:58:27.335Z,16.07
2018-08-04T04:59:27.500Z,16.11
2018-08-04T05:00:27.367Z,16.07
2018-08-04T05:01:27.374Z,15.98
2018-08-04T05:02:27.381Z,15.98
2018-08-04T05:03:27.381Z,16.06
2018-08-04T05:04:27.561Z,16.00
2018-08-04T05:05:27.425Z,16.10
2018-08-04T05:06:27.429Z,16.08
2018-08-04T05:07:27.438Z,16.14
2018-08-04T05:08:27.457Z,16.06
2018-08-04T05:09:27.612Z,16.10
2018-08-04T05:10:27.474Z,16.08
2018-08-04T05:11:27.486Z,16.06
2018-08-04T05:12:27.481Z,16.04
2018-08-04T05:13:27.512Z,15.98
2018-08-04T05:14:27.681Z,16.00
2018-08-04T05:15:27.531Z,15.96
2018-08-04T05:16:27.544Z,16.00
2018-08-04T05:17:27.558Z,15.93
2018-08-04T05:18:27.575Z,15.81
2018-08-04T05:19:27.733Z,15.86
2018-08-04T05:20:27.573Z,15.84
2018-08-04T05:21:27.669Z,15.86
2018-08-04T05:22:27.615Z,15.86
2018-08-04T05:23:27.630Z,15.89
2018-08-04T05:24:27.787Z,15.77
2018-08-04T05:25:27.634Z,15.78
2018-08-04T05:26:27.664Z,15.88
2018-08-04T05:27:27.673Z,15.83
2018-08-04T05:28:27.680Z,15.86
2018-08-04T05:29:27.846Z,15.83
2018-08-04T05:30:27.710Z,15.73
2018-08-04T05:31:27.715Z,15.88
2018-08-04T05:32:27.736Z,15.75
2018-08-04T05:33:27.738Z,15.78
2018-08-04T05:34:27.904Z,15.86
2018-08-04T05:35:27.767Z,15.77
2018-08-04T05:36:27.771Z,15.68
2018-08-04T05:37:27.852Z,15.75
2018-08-04T05:38:27.782Z,15.89
2018-08-04T05:39:27.964Z,15.68
2018-08-04T05:40:27.804Z,15.78
2018-08-04T05:41:27.830Z,15.83
2018-08-04T05:42:27.849Z,15.75
2018-08-04T05:43:27.858Z,15.78
2018-08-04T05:44:28.121Z,15.73
2018-08-04T05:45:27.880Z,15.71
2018-08-04T05:46:27.893Z,15.73
2018-08-04T05:47:27.909Z,15.63
2018-08-04T05:48:27.925Z,15.63
2018-08-04T05:49:28.179Z,15.78
2018-08-04T05:50:27.940Z,15.73
2018-08-04T05:51:27.931Z,15.81
2018-08-04T05:52:27.941Z,15.83
2018-08-04T05:53:27.975Z,15.67
2018-08-04T05:54:27.985Z,15.63
2018-08-04T05:55:28.124Z,15.70
2018-08-04T05:56:28.002Z,15.63
2018-08-04T05:57:28.018Z,15.65
2018-08-04T05:58:28.015Z,15.70
2018-08-04T05:59:28.040Z,15.70
2018-08-04T06:00:28.198Z,15.65
2018-08-04T06:01:28.066Z,15.63
2018-08-04T06:02:28.082Z,15.70
2018-08-04T06:03:28.095Z,15.83
2018-08-04T06:04:28.095Z,15.86
2018-08-04T06:05:28.105Z,15.62
2018-08-04T06:06:28.289Z,15.80
2018-08-04T06:07:28.138Z,15.83
2018-08-04T06:08:28.143Z,16.04
2018-08-04T06:09:28.156Z,15.98
2018-08-04T06:10:28.167Z,16.10
2018-08-04T06:11:28.428Z,16.16
2018-08-04T06:12:28.196Z,16.08
2018-08-04T06:13:28.196Z,16.04
2018-08-04T06:14:28.217Z,15.89
2018-08-04T06:15:28.221Z,16.16
2018-08-04T06:16:28.390Z,16.11
2018-08-04T06:17:28.252Z,16.04
2018-08-04T06:18:28.243Z,16.14
2018-08-04T06:19:28.273Z,16.00
2018-08-04T06:20:28.264Z,16.07
2018-08-04T06:21:28.546Z,16.00
2018-08-04T06:22:28.305Z,15.99
2018-08-04T06:23:28.318Z,16.04
2018-08-04T06:24:28.324Z,16.16
2018-08-04T06:25:28.345Z,16.14
2018-08-04T06:26:28.601Z,16.10
2018-08-04T06:27:28.362Z,16.11
2018-08-04T06:28:28.379Z,16.11
2018-08-04T06:29:28.388Z,16.11
2018-08-04T06:30:28.407Z,16.13
2018-08-04T06:31:28.559Z,16.22
2018-08-04T06:32:28.398Z,16.26
2018-08-04T06:33:28.455Z,16.25
2018-08-04T06:34:28.440Z,16.33
2018-08-04T06:35:28.441Z,16.29
2018-08-04T06:36:28.618Z,16.32
2018-08-04T06:37:28.479Z,16.37
2018-08-04T06:38:28.487Z,16.37
2018-08-04T06:39:28.503Z,16.36
2018-08-04T06:40:28.517Z,16.39
2018-08-04T06:41:28.681Z,16.45
2018-08-04T06:42:28.543Z,16.48
2018-08-04T06:43:28.538Z,16.52
2018-08-04T06:44:28.559Z,16.55
2018-08-04T06:45:28.580Z,16.55
2018-08-04T06:46:28.840Z,16.42
2018-08-04T06:47:28.602Z,16.52
2018-08-04T06:48:28.612Z,16.44
2018-08-04T06:49:28.618Z,16.48
2018-08-04T06:50:28.634Z,16.52
2018-08-04T06:51:28.798Z,16.47
2018-08-04T06:52:28.653Z,16.44
2018-08-04T06:53:28.671Z,16.49
2018-08-04T06:54:28.680Z,16.57
2018-08-04T06:55:28.692Z,16.49
2018-08-04T06:56:28.855Z,16.62
2018-08-04T06:57:28.714Z,16.55
2018-08-04T06:58:28.729Z,16.58
2018-08-04T06:59:28.729Z,16.52
2018-08-04T07:00:28.750Z,16.52
2018-08-04T07:01:28.928Z,16.65
2018-08-04T07:02:28.774Z,16.58
2018-08-04T07:03:28.797Z,16.52
2018-08-04T07:04:28.799Z,16.55
2018-08-04T07:05:28.811Z,16.63
2018-08-04T07:06:28.976Z,16.59
2018-08-04T07:07:28.840Z,16.52
2018-08-04T07:08:28.851Z,16.57
2018-08-04T07:09:28.850Z,16.67
2018-08-04T07:10:28.876Z,16.65
2018-08-04T07:11:29.034Z,16.59
2018-08-04T07:12:28.877Z,16.63
2018-08-04T07:13:28.910Z,16.65
2018-08-04T07:14:28.916Z,16.62
2018-08-04T07:15:28.934Z,16.49
2018-08-04T07:16:29.102Z,16.51
2018-08-04T07:17:28.939Z,16.59
2018-08-04T07:18:28.965Z,16.45
2018-08-04T07:19:28.983Z,16.69
2018-08-04T07:20:29.007Z,16.54
2018-08-04T07:21:29.162Z,16.55
2018-08-04T07:22:29.018Z,16.54
2018-08-04T07:23:29.035Z,16.52
2018-08-04T07:24:29.045Z,16.63
2018-08-04T07:25:29.052Z,16.63
2018-08-04T07:26:29.061Z,16.57
2018-08-04T07:27:29.226Z,16.65
2018-08-04T07:28:29.088Z,16.74
2018-08-04T07:29:29.097Z,16.65
2018-08-04T07:30:29.113Z,16.66
2018-08-04T07:31:29.128Z,16.77
2018-08-04T07:32:29.139Z,16.73
2018-08-04T07:33:29.402Z,16.66
2018-08-04T07:34:29.166Z,16.70
2018-08-04T07:35:29.174Z,16.66
2018-08-04T07:36:29.182Z,16.72
2018-08-04T07:37:29.197Z,16.76
2018-08-04T07:38:29.360Z,16.73
2018-08-04T07:39:29.219Z,16.70
2018-08-04T07:40:29.340Z,16.70
2018-08-04T07:41:29.248Z,16.67
2018-08-04T07:42:29.258Z,16.84
2018-08-04T07:43:29.403Z,16.90
2018-08-04T07:44:29.279Z,16.94
2018-08-04T07:45:29.281Z,16.99
2018-08-04T07:46:29.308Z,16.91
2018-08-04T07:47:29.338Z,17.03
2018-08-04T07:48:29.460Z,17.06
2018-08-04T07:49:29.343Z,17.10
2018-08-04T07:50:29.335Z,17.10
2018-08-04T07:51:29.352Z,17.09
2018-08-04T07:52:29.370Z,17.09
2018-08-04T07:53:29.543Z,16.94
2018-08-04T07:54:29.383Z,17.12
2018-08-04T07:55:29.424Z,17.12
2018-08-04T07:56:29.413Z,17.02
2018-08-04T07:57:29.428Z,17.03
2018-08-04T07:58:29.605Z,16.99
2018-08-04T07:59:29.487Z,16.88
2018-08-04T08:00:29.480Z,17.05
2018-08-04T08:01:29.495Z,17.03
2018-08-04T08:02:29.506Z,17.02
2018-08-04T08:03:29.661Z,17.07
2018-08-04T08:04:29.528Z,17.12
2018-08-04T08:05:29.542Z,17.10
2018-08-04T08:06:29.555Z,17.10
2018-08-04T08:07:29.566Z,17.13
2018-08-04T08:08:29.711Z,17.00
2018-08-04T08:09:29.589Z,17.10
2018-08-04T08:10:29.639Z,17.17
2018-08-04T08:11:29.615Z,17.06
2018-08-04T08:12:29.627Z,17.09
2018-08-04T08:13:29.766Z,16.99
2018-08-04T08:14:29.648Z,16.99
2018-08-04T08:15:29.665Z,16.97
2018-08-04T08:16:29.673Z,17.06
2018-08-04T08:17:29.688Z,17.07
2018-08-04T08:18:29.832Z,17.07
2018-08-04T08:19:29.773Z,17.09
2018-08-04T08:20:29.723Z,17.17
2018-08-04T08:21:29.744Z,17.15
2018-08-04T08:22:29.758Z,17.18
2018-08-04T08:23:30.017Z,17.17
2018-08-04T08:24:29.768Z,17.07
2018-08-04T08:25:29.785Z,17.12
2018-08-04T08:26:29.780Z,17.12
2018-08-04T08:27:29.805Z,17.13
2018-08-04T08:28:29.975Z,17.13
2018-08-04T08:29:29.833Z,17.17
2018-08-04T08:30:29.843Z,17.13
2018-08-04T08:31:29.914Z,17.07
2018-08-04T08:32:29.875Z,17.00
2018-08-04T08:33:30.037Z,17.00
2018-08-04T08:34:29.901Z,16.99
2018-08-04T08:35:29.903Z,16.95
2018-08-04T08:36:29.925Z,16.97
2018-08-04T08:37:29.933Z,16.90
2018-08-04T08:38:30.125Z,16.81
2018-08-04T08:39:29.952Z,16.88
2018-08-04T08:40:29.981Z,16.85
2018-08-04T08:41:29.993Z,16.90
2018-08-04T08:42:29.998Z,16.81
2018-08-04T08:43:30.136Z,16.77
2018-08-04T08:44:30.005Z,16.88
2018-08-04T08:45:30.036Z,16.81
2018-08-04T08:46:30.050Z,16.69
2018-08-04T08:47:30.052Z,16.62
2018-08-04T08:48:30.046Z,16.63
2018-08-04T08:49:30.233Z,16.63
2018-08-04T08:50:30.095Z,16.69
2018-08-04T08:51:30.106Z,16.62
2018-08-04T08:52:30.102Z,16.58
2018-08-04T08:53:30.323Z,16.49
2018-08-04T08:54:30.297Z,16.54
2018-08-04T08:55:30.150Z,16.51
2018-08-04T08:56:30.170Z,16.54
2018-08-04T08:57:30.173Z,16.49
2018-08-04T08:58:30.186Z,16.51
2018-08-04T08:59:30.354Z,16.57
2018-08-04T09:00:30.196Z,16.59
2018-08-04T09:01:30.385Z,16.63
2018-08-04T09:02:30.237Z,16.63
2018-08-04T09:03:30.261Z,16.58
2018-08-04T09:04:30.414Z,16.59
2018-08-04T09:05:30.281Z,16.55
2018-08-04T09:06:30.297Z,16.54
2018-08-04T09:07:30.300Z,16.62
2018-08-04T09:08:30.323Z,16.54
2018-08-04T09:09:30.469Z,16.67
2018-08-04T09:10:30.335Z,16.57
2018-08-04T09:11:30.345Z,16.47
2018-08-04T09:12:30.352Z,16.42
2018-08-04T09:13:30.369Z,16.65
2018-08-04T09:14:30.384Z,16.63
2018-08-04T09:15:30.389Z,16.55
2018-08-04T09:16:30.405Z,16.51
2018-08-04T09:17:30.416Z,16.49
2018-08-04T09:18:30.426Z,16.55
2018-08-04T09:19:30.667Z,16.55
2018-08-04T09:20:30.448Z,16.58
2018-08-04T09:21:30.463Z,16.57
2018-08-04T09:22:30.481Z,16.57
2018-08-04T09:23:30.489Z,16.49
2018-08-04T09:24:30.646Z,16.59
2018-08-04T09:25:30.516Z,16.55
2018-08-04T09:26:30.505Z,16.58
2018-08-04T09:27:30.539Z,16.51
2018-08-04T09:28:30.548Z,16.55
2018-08-04T09:29:30.708Z,16.66
2018-08-04T09:30:30.566Z,16.62
2018-08-04T09:31:30.591Z,16.52
2018-08-04T09:32:30.593Z,16.52
2018-08-04T09:33:30.604Z,16.55
2018-08-04T09:34:30.767Z,16.55
2018-08-04T09:35:30.631Z,16.49
2018-08-04T09:36:30.638Z,16.48
2018-08-04T09:37:30.649Z,16.47
2018-08-04T09:38:30.669Z,16.42
2018-08-04T09:39:30.926Z,16.49
2018-08-04T09:40:30.689Z,16.39
2018-08-04T09:41:30.701Z,16.34
2018-08-04T09:42:30.699Z,16.32
2018-08-04T09:43:30.729Z,16.14
2018-08-04T09:44:30.871Z,16.14
2018-08-04T09:45:30.727Z,16.06
2018-08-04T09:46:30.755Z,16.22
2018-08-04T09:47:30.765Z,16.25
2018-08-04T09:48:30.763Z,16.18
2018-08-04T09:49:31.044Z,16.21
2018-08-04T09:50:30.804Z,16.26
2018-08-04T09:51:30.812Z,16.18
2018-08-04T09:52:30.853Z,16.26
2018-08-04T09:53:30.847Z,16.33
2018-08-04T09:54:30.987Z,16.30
2018-08-04T09:55:30.862Z,16.29
2018-08-04T09:56:30.874Z,16.36
2018-08-04T09:57:30.925Z,16.36
2018-08-04T09:58:30.897Z,16.37
2018-08-04T09:59:31.121Z,16.34
2018-08-04T10:00:30.942Z,16.16
2018-08-04T10:01:30.941Z,16.16
2018-08-04T10:02:30.946Z,16.14
2018-08-04T10:03:30.960Z,16.10
2018-08-04T10:04:31.122Z,16.10
2018-08-04T10:05:31.006Z,16.10
2018-08-04T10:06:30.990Z,16.22
2018-08-04T10:07:31.005Z,16.17
2018-08-04T10:08:31.015Z,16.29
2018-08-04T10:09:31.027Z,16.33
2018-08-04T10:10:31.197Z,16.36
2018-08-04T10:11:31.053Z,16.37
2018-08-04T10:12:31.059Z,16.32
2018-08-04T10:13:31.082Z,16.32
2018-08-04T10:14:31.084Z,16.13
2018-08-04T10:15:31.100Z,16.37
2018-08-04T10:16:31.263Z,16.37
2018-08-04T10:17:31.124Z,16.42
2018-08-04T10:18:31.135Z,16.34
2018-08-04T10:19:31.130Z,16.40
2018-08-04T10:20:31.141Z,16.45
2018-08-04T10:21:31.320Z,16.44
2018-08-04T10:22:31.180Z,16.47
2018-08-04T10:23:31.197Z,16.49
2018-08-04T10:24:31.205Z,16.55
2018-08-04T10:25:31.220Z,16.62
2018-08-04T10:26:31.466Z,16.55
2018-08-04T10:27:31.227Z,16.65
2018-08-04T10:28:31.250Z,16.58
2018-08-04T10:29:31.263Z,16.65
2018-08-04T10:30:31.282Z,16.65
2018-08-04T10:31:31.441Z,16.59
2018-08-04T10:32:31.314Z,16.62
2018-08-04T10:33:31.317Z,16.58
2018-08-04T10:34:31.328Z,16.67
2018-08-04T10:35:31.339Z,16.63
2018-08-04T10:36:31.613Z,16.73
2018-08-04T10:37:31.372Z,16.67
2018-08-04T10:38:31.384Z,16.72
2018-08-04T10:39:31.379Z,16.73
2018-08-04T10:40:31.397Z,16.72
2018-08-04T10:41:31.567Z,16.90
2018-08-04T10:42:31.425Z,17.07
2018-08-04T10:43:31.443Z,17.18
2018-08-04T10:44:31.456Z,17.15
2018-08-04T10:45:31.464Z,17.25
2018-08-04T10:46:31.628Z,17.35
2018-08-04T10:47:31.494Z,17.32
2018-08-04T10:48:31.505Z,17.35
2018-08-04T10:49:31.530Z,17.31
2018-08-04T10:50:31.535Z,17.43
2018-08-04T10:51:31.695Z,17.46
2018-08-04T10:52:31.552Z,17.36
2018-08-04T10:53:31.569Z,17.43
2018-08-04T10:54:31.580Z,17.43
2018-08-04T10:55:31.595Z,17.55
2018-08-04T10:56:31.854Z,17.50
2018-08-04T10:57:31.619Z,17.62
2018-08-04T10:58:31.631Z,17.66
2018-08-04T10:59:31.643Z,17.76
2018-08-04T11:00:31.647Z,17.88
2018-08-04T11:01:31.929Z,17.92
2018-08-04T11:02:31.690Z,17.92
2018-08-04T11:03:31.707Z,17.87
2018-08-04T11:04:31.721Z,17.80
2018-08-04T11:05:31.733Z,17.88
2018-08-04T11:06:31.897Z,17.88
2018-08-04T11:07:31.738Z,17.98
2018-08-04T11:08:31.772Z,17.96
2018-08-04T11:09:31.786Z,17.95
2018-08-04T11:10:31.798Z,18.02
2018-08-04T11:11:31.958Z,18.02
2018-08-04T11:12:31.840Z,17.94
2018-08-04T11:13:31.843Z,17.87
2018-08-04T11:14:31.855Z,17.92
2018-08-04T11:15:31.868Z,17.88
2018-08-04T11:16:32.128Z,17.92
2018-08-04T11:17:31.897Z,18.11
2018-08-04T11:18:31.932Z,18.02
2018-08-04T11:19:31.926Z,18.08
2018-08-04T11:20:31.919Z,18.11
2018-08-04T11:21:31.950Z,18.21
2018-08-04T11:22:32.216Z,18.31
2018-08-04T11:23:31.980Z,18.49
2018-08-04T11:24:31.996Z,18.56
2018-08-04T11:25:32.007Z,18.76
2018-08-04T11:26:32.022Z,18.76
2018-08-04T11:27:32.042Z,18.84
2018-08-04T11:28:32.184Z,18.91
2018-08-04T11:29:32.069Z,18.99
2018-08-04T11:30:32.069Z,19.13
2018-08-04T11:31:32.104Z,19.24
2018-08-04T11:32:32.111Z,19.24
2018-08-04T11:33:32.280Z,19.24
2018-08-04T11:34:32.144Z,19.31
2018-08-04T11:35:32.161Z,19.16
2018-08-04T11:36:32.242Z,19.30
2018-08-04T11:37:32.187Z,19.31
2018-08-04T11:38:32.457Z,19.38
2018-08-04T11:39:32.221Z,19.47
2018-08-04T11:40:32.241Z,19.49
2018-08-04T11:41:32.258Z,19.64
2018-08-04T11:42:32.247Z,19.55
2018-08-04T11:43:32.433Z,19.63
2018-08-04T11:44:32.300Z,19.57
2018-08-04T11:45:32.329Z,19.63
2018-08-04T11:46:32.318Z,19.68
2018-08-04T11:47:32.349Z,19.80
2018-08-04T11:48:32.624Z,19.83
2018-08-04T11:49:32.363Z,20.04
2018-08-04T11:50:32.401Z,20.12
2018-08-04T11:51:32.419Z,20.15
2018-08-04T11:52:32.430Z,20.27
2018-08-04T11:53:32.700Z,20.41
2018-08-04T11:54:32.461Z,20.38
2018-08-04T11:55:32.477Z,20.42
2018-08-04T11:56:32.493Z,20.58
2018-08-04T11:57:32.510Z,20.72
2018-08-04T11:58:32.632Z,20.81
2018-08-04T11:59:32.523Z,21.04
2018-08-04T12:00:32.543Z,21.13
2018-08-04T12:01:32.579Z,21.21
2018-08-04T12:02:32.593Z,21.30
2018-08-04T12:03:32.756Z,21.40
2018-08-04T12:04:32.629Z,21.51
2018-08-04T12:05:32.751Z,21.41
2018-08-04T12:06:32.658Z,21.46
2018-08-04T12:07:32.689Z,21.36
2018-08-04T12:08:32.850Z,21.36
2018-08-04T12:09:32.697Z,21.41
2018-08-04T12:10:32.715Z,21.43
2018-08-04T12:11:32.744Z,21.53
2018-08-04T12:12:32.765Z,21.68
2018-08-04T12:13:32.934Z,21.76
2018-08-04T12:14:32.811Z,21.93
2018-08-04T12:15:32.824Z,21.99
2018-08-04T12:16:32.844Z,22.05
2018-08-04T12:17:32.833Z,22.16
2018-08-04T12:18:33.028Z,22.20
2018-08-04T12:19:32.890Z,22.20
2018-08-04T12:20:32.907Z,22.20
2018-08-04T12:21:32.923Z,22.20
2018-08-04T12:22:32.948Z,22.26
2018-08-04T12:23:33.093Z,22.24
2018-08-04T12:24:32.963Z,22.33
2018-08-04T12:25:33.056Z,22.27
2018-08-04T12:26:33.017Z,22.27
2018-08-04T12:27:33.036Z,22.22
2018-08-04T12:28:33.052Z,22.36
2018-08-04T12:29:33.225Z,22.49
2018-08-04T12:30:33.090Z,22.51
2018-08-04T12:31:33.181Z,22.55
2018-08-04T12:32:33.130Z,22.75
2018-08-04T12:33:33.149Z,22.69
2018-08-04T12:34:33.413Z,22.71
2018-08-04T12:35:33.169Z,22.73
2018-08-04T12:36:33.180Z,22.69
2018-08-04T12:37:33.276Z,22.85
2018-08-04T12:38:33.238Z,22.92
2018-08-04T12:39:33.419Z,23.04
2018-08-04T12:40:33.277Z,23.00
2018-08-04T12:41:33.296Z,23.18
2018-08-04T12:42:33.316Z,23.22
2018-08-04T12:43:33.324Z,23.38
2018-08-04T12:44:33.591Z,23.40
2018-08-04T12:45:33.414Z,23.45
2018-08-04T12:46:33.371Z,23.45
2018-08-04T12:47:33.409Z,23.55
2018-08-04T12:48:33.425Z,23.45
2018-08-04T12:49:33.461Z,23.40
2018-08-04T12:50:33.470Z,23.47
2018-08-04T12:51:33.496Z,23.53
2018-08-04T12:52:33.514Z,23.57